sensor_id;sensor_type;location;lat;lon;timestamp;temperature;humidity
37998;DHT22;24079;51.824;4.682;2023-08-30T00:00:58;15.90;99.90
37998;DHT22;24079;51.824;4.682;2023-08-30T00:03:24;15.80;99.90
37998;DHT22;24079;51.824;4.682;2023-08-30T00:05:50;15.90;99.90
37998;DHT22;24079;51.824;4.682;2023-08-30T00:08:16;15.90;99.90
37998;DHT22;24079;51.824;4.682;2023-08-30T00:10:45;15.80;99.90
37998;DHT22;24079;51.824;4.682;2023-08-30T00:13:12;15.80;99.90
37998;DHT22;24079;51.824;4.682;2023-08-30T00:15:38;15.70;99.90
37998;DHT22;24079;51.824;4.682;2023-08-30T00:18:05;15.70;99.90
37998;DHT22;24079;51.824;4.682;2023-08-30T00:20:31;15.70;99.90
37998;DHT22;24079;51.824;4.682;2023-08-30T00:22:58;15.70;99.90
37998;DHT22;24079;51.824;4.682;2023-08-30T00:25:24;15.80;99.90
37998;DHT22;24079;51.824;4.682;2023-08-30T00:27:50;15.70;99.90
37998;DHT22;24079;51.824;4.682;2023-08-30T00:30:16;15.60;99.90
37998;DHT22;24079;51.824;4.682;2023-08-30T00:32:42;15.60;99.90
37998;DHT22;24079;51.824;4.682;2023-08-30T00:35:08;15.60;99.90
37998;DHT22;24079;51.824;4.682;2023-08-30T00:37:35;15.60;99.90
37998;DHT22;24079;51.824;4.682;2023-08-30T00:40:01;15.70;99.90
37998;DHT22;24079;51.824;4.682;2023-08-30T00:42:27;15.70;99.90
37998;DHT22;24079;51.824;4.682;2023-08-30T00:44:53;15.60;99.90
37998;DHT22;24079;51.824;4.682;2023-08-30T00:47:20;15.60;99.90
37998;DHT22;24079;51.824;4.682;2023-08-30T00:49:46;15.60;99.90
37998;DHT22;24079;51.824;4.682;2023-08-30T00:52:13;15.60;99.90
37998;DHT22;24079;51.824;4.682;2023-08-30T00:54:39;15.60;99.90
37998;DHT22;24079;51.824;4.682;2023-08-30T00:57:06;15.60;99.90
37998;DHT22;24079;51.824;4.682;2023-08-30T00:59:33;15.60;99.90
37998;DHT22;24079;51.824;4.682;2023-08-30T01:02:00;15.50;99.90
37998;DHT22;24079;51.824;4.682;2023-08-30T01:04:29;15.60;99.90
37998;DHT22;24079;51.824;4.682;2023-08-30T01:06:56;15.50;99.90
37998;DHT22;24079;51.824;4.682;2023-08-30T01:09:23;15.50;99.90
37998;DHT22;24079;51.824;4.682;2023-08-30T01:14:34;15.60;99.90
37998;DHT22;24079;51.824;4.682;2023-08-30T01:17:04;15.50;99.90
37998;DHT22;24079;51.824;4.682;2023-08-30T01:19:46;15.60;99.90
37998;DHT22;24079;51.824;4.682;2023-08-30T01:24:53;15.50;99.90
37998;DHT22;24079;51.824;4.682;2023-08-30T01:27:20;15.70;99.90
37998;DHT22;24079;51.824;4.682;2023-08-30T01:29:49;15.60;99.90
37998;DHT22;24079;51.824;4.682;2023-08-30T01:32:15;15.60;99.90
37998;DHT22;24079;51.824;4.682;2023-08-30T01:34:42;15.60;99.90
37998;DHT22;24079;51.824;4.682;2023-08-30T01:37:10;15.60;99.90
37998;DHT22;24079;51.824;4.682;2023-08-30T01:39:40;15.60;99.90
37998;DHT22;24079;51.824;4.682;2023-08-30T01:42:07;15.60;99.90
37998;DHT22;24079;51.824;4.682;2023-08-30T01:44:33;15.60;99.90
37998;DHT22;24079;51.824;4.682;2023-08-30T01:47:00;15.60;99.90
37998;DHT22;24079;51.824;4.682;2023-08-30T01:49:28;15.60;99.90
37998;DHT22;24079;51.824;4.682;2023-08-30T01:51:57;15.50;99.90
37998;DHT22;24079;51.824;4.682;2023-08-30T01:54:24;15.40;99.90
37998;DHT22;24079;51.824;4.682;2023-08-30T01:56:50;15.40;99.90
37998;DHT22;24079;51.824;4.682;2023-08-30T01:59:16;15.40;99.90
37998;DHT22;24079;51.824;4.682;2023-08-30T02:01:43;15.30;99.90
37998;DHT22;24079;51.824;4.682;2023-08-30T02:04:09;15.30;99.90
37998;DHT22;24079;51.824;4.682;2023-08-30T02:12:00;15.20;99.90
37998;DHT22;24079;51.824;4.682;2023-08-30T02:14:29;15.20;99.90
37998;DHT22;24079;51.824;4.682;2023-08-30T02:16:56;15.10;99.90
37998;DHT22;24079;51.824;4.682;2023-08-30T02:19:23;15.10;99.90
37998;DHT22;24079;51.824;4.682;2023-08-30T02:21:49;15.00;99.90
37998;DHT22;24079;51.824;4.682;2023-08-30T02:24:15;15.00;99.90
37998;DHT22;24079;51.824;4.682;2023-08-30T02:26:41;15.00;99.90
37998;DHT22;24079;51.824;4.682;2023-08-30T02:29:07;15.00;99.90
37998;DHT22;24079;51.824;4.682;2023-08-30T02:31:34;15.00;99.90
37998;DHT22;24079;51.824;4.682;2023-08-30T02:34:00;14.90;99.90
37998;DHT22;24079;51.824;4.682;2023-08-30T02:36:26;14.90;99.90
37998;DHT22;24079;51.824;4.682;2023-08-30T02:38:52;14.90;99.90
37998;DHT22;24079;51.824;4.682;2023-08-30T02:41:18;14.90;99.90
37998;DHT22;24079;51.824;4.682;2023-08-30T02:43:44;14.80;99.90
37998;DHT22;24079;51.824;4.682;2023-08-30T02:46:10;14.80;99.90
37998;DHT22;24079;51.824;4.682;2023-08-30T02:48:36;14.80;99.90
37998;DHT22;24079;51.824;4.682;2023-08-30T02:51:02;14.80;99.90
37998;DHT22;24079;51.824;4.682;2023-08-30T02:53:28;14.80;99.90
37998;DHT22;24079;51.824;4.682;2023-08-30T02:55:55;14.80;99.90
37998;DHT22;24079;51.824;4.682;2023-08-30T02:58:22;14.80;99.90
37998;DHT22;24079;51.824;4.682;2023-08-30T03:00:48;14.70;99.90
37998;DHT22;24079;51.824;4.682;2023-08-30T03:03:14;14.70;99.90
37998;DHT22;24079;51.824;4.682;2023-08-30T03:05:40;14.70;99.90
37998;DHT22;24079;51.824;4.682;2023-08-30T03:08:07;14.70;99.90
37998;DHT22;24079;51.824;4.682;2023-08-30T03:10:32;14.70;99.90
37998;DHT22;24079;51.824;4.682;2023-08-30T03:12:58;14.60;99.90
37998;DHT22;24079;51.824;4.682;2023-08-30T03:15:24;14.70;99.90
37998;DHT22;24079;51.824;4.682;2023-08-30T03:17:50;14.70;99.90
37998;DHT22;24079;51.824;4.682;2023-08-30T03:20:16;14.60;99.90
37998;DHT22;24079;51.824;4.682;2023-08-30T03:22:42;14.50;99.90
37998;DHT22;24079;51.824;4.682;2023-08-30T03:25:08;14.50;99.90
37998;DHT22;24079;51.824;4.682;2023-08-30T03:27:35;14.50;99.90
37998;DHT22;24079;51.824;4.682;2023-08-30T03:30:03;14.50;99.90
37998;DHT22;24079;51.824;4.682;2023-08-30T03:32:29;14.50;99.90
37998;DHT22;24079;51.824;4.682;2023-08-30T03:34:58;14.50;99.90
37998;DHT22;24079;51.824;4.682;2023-08-30T03:37:24;14.40;99.90
37998;DHT22;24079;51.824;4.682;2023-08-30T03:39:50;14.40;99.90
37998;DHT22;24079;51.824;4.682;2023-08-30T03:42:16;14.50;99.90
37998;DHT22;24079;51.824;4.682;2023-08-30T03:44:42;14.50;99.90
37998;DHT22;24079;51.824;4.682;2023-08-30T03:47:08;14.50;99.90
37998;DHT22;24079;51.824;4.682;2023-08-30T03:49:35;14.50;99.90
37998;DHT22;24079;51.824;4.682;2023-08-30T03:52:01;14.50;99.90
37998;DHT22;24079;51.824;4.682;2023-08-30T03:54:27;14.50;99.90
37998;DHT22;24079;51.824;4.682;2023-08-30T03:56:53;14.50;99.90
37998;DHT22;24079;51.824;4.682;2023-08-30T03:59:22;14.40;99.90
37998;DHT22;24079;51.824;4.682;2023-08-30T04:01:51;14.40;99.90
37998;DHT22;24079;51.824;4.682;2023-08-30T04:04:17;14.40;99.90
37998;DHT22;24079;51.824;4.682;2023-08-30T04:06:43;14.50;99.90
37998;DHT22;24079;51.824;4.682;2023-08-30T04:09:09;14.50;99.90
37998;DHT22;24079;51.824;4.682;2023-08-30T04:11:35;14.40;99.90
37998;DHT22;24079;51.824;4.682;2023-08-30T04:14:01;14.50;99.90
37998;DHT22;24079;51.824;4.682;2023-08-30T04:16:27;14.50;99.90
37998;DHT22;24079;51.824;4.682;2023-08-30T04:18:53;14.50;99.90
37998;DHT22;24079;51.824;4.682;2023-08-30T04:21:19;14.50;99.90
37998;DHT22;24079;51.824;4.682;2023-08-30T04:23:45;14.50;99.90
37998;DHT22;24079;51.824;4.682;2023-08-30T04:26:10;14.60;99.90
37998;DHT22;24079;51.824;4.682;2023-08-30T04:28:36;14.50;99.90
37998;DHT22;24079;51.824;4.682;2023-08-30T04:31:02;14.60;99.90
37998;DHT22;24079;51.824;4.682;2023-08-30T04:33:27;14.60;99.90
37998;DHT22;24079;51.824;4.682;2023-08-30T04:35:54;14.60;99.90
37998;DHT22;24079;51.824;4.682;2023-08-30T04:38:20;14.60;99.90
37998;DHT22;24079;51.824;4.682;2023-08-30T04:40:47;14.60;99.90
37998;DHT22;24079;51.824;4.682;2023-08-30T04:43:13;14.60;99.90
37998;DHT22;24079;51.824;4.682;2023-08-30T04:45:38;14.50;99.90
37998;DHT22;24079;51.824;4.682;2023-08-30T04:48:04;14.60;99.90
37998;DHT22;24079;51.824;4.682;2023-08-30T04:50:30;14.60;99.90
37998;DHT22;24079;51.824;4.682;2023-08-30T04:52:56;14.60;99.90
37998;DHT22;24079;51.824;4.682;2023-08-30T04:55:25;14.70;99.90
37998;DHT22;24079;51.824;4.682;2023-08-30T04:57:51;14.70;99.90
37998;DHT22;24079;51.824;4.682;2023-08-30T05:00:17;14.60;99.90
37998;DHT22;24079;51.824;4.682;2023-08-30T05:02:44;14.60;99.90
37998;DHT22;24079;51.824;4.682;2023-08-30T05:05:12;14.60;99.90
37998;DHT22;24079;51.824;4.682;2023-08-30T05:07:38;14.60;99.90
37998;DHT22;24079;51.824;4.682;2023-08-30T05:10:04;14.60;99.90
37998;DHT22;24079;51.824;4.682;2023-08-30T05:12:30;14.70;99.90
37998;DHT22;24079;51.824;4.682;2023-08-30T05:14:56;14.70;99.90
37998;DHT22;24079;51.824;4.682;2023-08-30T05:17:21;14.70;99.90
37998;DHT22;24079;51.824;4.682;2023-08-30T05:19:48;14.70;99.90
37998;DHT22;24079;51.824;4.682;2023-08-30T05:22:13;14.70;99.90
37998;DHT22;24079;51.824;4.682;2023-08-30T05:24:39;14.70;99.90
37998;DHT22;24079;51.824;4.682;2023-08-30T05:27:06;14.70;99.90
37998;DHT22;24079;51.824;4.682;2023-08-30T05:29:33;14.70;99.90
37998;DHT22;24079;51.824;4.682;2023-08-30T05:31:59;14.70;99.90
37998;DHT22;24079;51.824;4.682;2023-08-30T05:34:25;14.60;99.90
37998;DHT22;24079;51.824;4.682;2023-08-30T05:36:52;14.50;99.90
37998;DHT22;24079;51.824;4.682;2023-08-30T05:39:19;14.60;99.90
37998;DHT22;24079;51.824;4.682;2023-08-30T05:41:45;14.60;99.90
37998;DHT22;24079;51.824;4.682;2023-08-30T05:44:11;14.60;99.90
37998;DHT22;24079;51.824;4.682;2023-08-30T05:46:37;14.60;99.90
37998;DHT22;24079;51.824;4.682;2023-08-30T05:49:04;14.60;99.90
37998;DHT22;24079;51.824;4.682;2023-08-30T05:51:30;14.60;99.90
37998;DHT22;24079;51.824;4.682;2023-08-30T05:53:56;14.60;99.90
37998;DHT22;24079;51.824;4.682;2023-08-30T05:56:22;14.60;99.90
37998;DHT22;24079;51.824;4.682;2023-08-30T05:58:48;14.60;99.90
37998;DHT22;24079;51.824;4.682;2023-08-30T06:01:18;14.60;99.90
37998;DHT22;24079;51.824;4.682;2023-08-30T06:03:44;14.60;99.90
37998;DHT22;24079;51.824;4.682;2023-08-30T06:06:12;14.60;99.90
37998;DHT22;24079;51.824;4.682;2023-08-30T06:08:38;14.60;99.90
37998;DHT22;24079;51.824;4.682;2023-08-30T06:11:04;14.50;99.90
37998;DHT22;24079;51.824;4.682;2023-08-30T06:13:30;14.50;99.90
37998;DHT22;24079;51.824;4.682;2023-08-30T06:15:56;14.50;99.90
37998;DHT22;24079;51.824;4.682;2023-08-30T06:18:22;14.50;99.90
37998;DHT22;24079;51.824;4.682;2023-08-30T06:20:49;14.50;99.90
37998;DHT22;24079;51.824;4.682;2023-08-30T06:23:19;14.60;99.90
37998;DHT22;24079;51.824;4.682;2023-08-30T06:25:52;14.60;99.90
37998;DHT22;24079;51.824;4.682;2023-08-30T06:28:18;14.50;99.90
37998;DHT22;24079;51.824;4.682;2023-08-30T06:30:44;14.40;99.90
37998;DHT22;24079;51.824;4.682;2023-08-30T06:33:10;14.40;99.90
37998;DHT22;24079;51.824;4.682;2023-08-30T06:35:37;14.30;99.90
37998;DHT22;24079;51.824;4.682;2023-08-30T06:38:05;14.30;99.90
37998;DHT22;24079;51.824;4.682;2023-08-30T06:40:32;14.30;99.90
37998;DHT22;24079;51.824;4.682;2023-08-30T06:42:59;14.40;99.90
37998;DHT22;24079;51.824;4.682;2023-08-30T06:45:25;14.40;99.90
37998;DHT22;24079;51.824;4.682;2023-08-30T06:47:51;14.40;99.90
37998;DHT22;24079;51.824;4.682;2023-08-30T06:50:19;14.40;99.90
37998;DHT22;24079;51.824;4.682;2023-08-30T06:52:45;14.40;99.90
37998;DHT22;24079;51.824;4.682;2023-08-30T06:55:11;14.40;99.90
37998;DHT22;24079;51.824;4.682;2023-08-30T06:57:36;14.50;99.90
37998;DHT22;24079;51.824;4.682;2023-08-30T07:00:02;14.50;99.90
37998;DHT22;24079;51.824;4.682;2023-08-30T07:02:34;14.50;99.90
37998;DHT22;24079;51.824;4.682;2023-08-30T07:05:00;14.60;99.90
37998;DHT22;24079;51.824;4.682;2023-08-30T07:07:26;14.50;99.90
37998;DHT22;24079;51.824;4.682;2023-08-30T07:09:52;14.50;99.90
37998;DHT22;24079;51.824;4.682;2023-08-30T07:12:17;14.60;99.90
37998;DHT22;24079;51.824;4.682;2023-08-30T07:14:46;14.60;99.90
37998;DHT22;24079;51.824;4.682;2023-08-30T07:17:12;14.60;99.90
37998;DHT22;24079;51.824;4.682;2023-08-30T07:19:39;14.70;99.90
37998;DHT22;24079;51.824;4.682;2023-08-30T07:22:05;14.70;99.90
37998;DHT22;24079;51.824;4.682;2023-08-30T07:24:31;14.70;99.90
37998;DHT22;24079;51.824;4.682;2023-08-30T07:26:57;14.70;99.90
37998;DHT22;24079;51.824;4.682;2023-08-30T07:29:23;14.70;99.90
37998;DHT22;24079;51.824;4.682;2023-08-30T07:31:49;14.70;99.90
37998;DHT22;24079;51.824;4.682;2023-08-30T07:34:19;14.70;99.90
37998;DHT22;24079;51.824;4.682;2023-08-30T07:36:45;14.70;99.90
37998;DHT22;24079;51.824;4.682;2023-08-30T07:39:11;14.70;99.90
37998;DHT22;24079;51.824;4.682;2023-08-30T07:41:37;14.70;99.90
37998;DHT22;24079;51.824;4.682;2023-08-30T07:44:03;14.70;99.90
37998;DHT22;24079;51.824;4.682;2023-08-30T07:46:30;14.70;99.90
37998;DHT22;24079;51.824;4.682;2023-08-30T07:48:56;14.80;99.90
37998;DHT22;24079;51.824;4.682;2023-08-30T07:51:22;14.80;99.90
37998;DHT22;24079;51.824;4.682;2023-08-30T07:53:48;14.90;99.90
37998;DHT22;24079;51.824;4.682;2023-08-30T07:56:14;14.90;99.90
37998;DHT22;24079;51.824;4.682;2023-08-30T07:58:41;14.90;99.90
37998;DHT22;24079;51.824;4.682;2023-08-30T08:01:07;15.00;99.90
37998;DHT22;24079;51.824;4.682;2023-08-30T08:03:33;15.10;99.90
37998;DHT22;24079;51.824;4.682;2023-08-30T08:05:59;15.10;99.90
37998;DHT22;24079;51.824;4.682;2023-08-30T08:08:25;15.20;99.90
37998;DHT22;24079;51.824;4.682;2023-08-30T08:10:51;15.30;99.90
37998;DHT22;24079;51.824;4.682;2023-08-30T08:13:17;15.50;99.90
37998;DHT22;24079;51.824;4.682;2023-08-30T08:15:44;15.80;99.90
37998;DHT22;24079;51.824;4.682;2023-08-30T08:18:10;15.80;99.90
37998;DHT22;24079;51.824;4.682;2023-08-30T08:20:36;15.90;99.90
37998;DHT22;24079;51.824;4.682;2023-08-30T08:23:03;16.00;99.90
37998;DHT22;24079;51.824;4.682;2023-08-30T08:25:29;16.20;99.90
37998;DHT22;24079;51.824;4.682;2023-08-30T08:27:55;16.20;99.90
37998;DHT22;24079;51.824;4.682;2023-08-30T08:30:21;16.30;99.90
37998;DHT22;24079;51.824;4.682;2023-08-30T08:32:48;16.60;99.90
37998;DHT22;24079;51.824;4.682;2023-08-30T08:35:14;16.90;99.90
37998;DHT22;24079;51.824;4.682;2023-08-30T08:37:40;16.90;99.90
37998;DHT22;24079;51.824;4.682;2023-08-30T08:40:07;16.90;99.90
37998;DHT22;24079;51.824;4.682;2023-08-30T08:47:41;17.10;99.90
37998;DHT22;24079;51.824;4.682;2023-08-30T08:50:07;17.00;99.90
37998;DHT22;24079;51.824;4.682;2023-08-30T08:52:35;17.50;99.90
37998;DHT22;24079;51.824;4.682;2023-08-30T08:55:01;17.80;99.90
37998;DHT22;24079;51.824;4.682;2023-08-30T08:57:29;17.80;99.90
37998;DHT22;24079;51.824;4.682;2023-08-30T08:59:57;17.80;99.90
37998;DHT22;24079;51.824;4.682;2023-08-30T09:02:23;18.20;99.90
37998;DHT22;24079;51.824;4.682;2023-08-30T09:04:49;18.60;99.90
37998;DHT22;24079;51.824;4.682;2023-08-30T09:07:17;18.60;99.90
37998;DHT22;24079;51.824;4.682;2023-08-30T09:09:43;18.50;99.90
37998;DHT22;24079;51.824;4.682;2023-08-30T09:12:09;18.50;99.90
37998;DHT22;24079;51.824;4.682;2023-08-30T09:14:35;18.60;99.90
37998;DHT22;24079;51.824;4.682;2023-08-30T09:17:02;19.00;99.90
37998;DHT22;24079;51.824;4.682;2023-08-30T09:19:29;19.50;99.90
37998;DHT22;24079;51.824;4.682;2023-08-30T09:21:59;20.10;99.90
37998;DHT22;24079;51.824;4.682;2023-08-30T09:24:25;20.50;99.90
37998;DHT22;24079;51.824;4.682;2023-08-30T09:26:53;20.50;99.90
37998;DHT22;24079;51.824;4.682;2023-08-30T09:29:21;20.10;99.90
37998;DHT22;24079;51.824;4.682;2023-08-30T09:31:51;19.70;99.90
37998;DHT22;24079;51.824;4.682;2023-08-30T09:34:17;19.10;99.90
37998;DHT22;24079;51.824;4.682;2023-08-30T09:36:43;18.60;99.90
37998;DHT22;24079;51.824;4.682;2023-08-30T09:39:12;18.20;99.90
37998;DHT22;24079;51.824;4.682;2023-08-30T09:41:45;17.90;99.90
37998;DHT22;24079;51.824;4.682;2023-08-30T09:44:12;17.60;99.90
37998;DHT22;24079;51.824;4.682;2023-08-30T09:49:11;17.50;99.90
37998;DHT22;24079;51.824;4.682;2023-08-30T09:51:41;17.40;99.90
37998;DHT22;24079;51.824;4.682;2023-08-30T09:54:16;17.50;99.90
37998;DHT22;24079;51.824;4.682;2023-08-30T09:56:43;17.90;99.90
37998;DHT22;24079;51.824;4.682;2023-08-30T09:59:10;18.40;99.90
37998;DHT22;24079;51.824;4.682;2023-08-30T10:01:38;18.80;99.90
37998;DHT22;24079;51.824;4.682;2023-08-30T10:04:07;18.90;99.90
37998;DHT22;24079;51.824;4.682;2023-08-30T10:06:35;18.80;99.90
37998;DHT22;24079;51.824;4.682;2023-08-30T10:09:03;18.90;99.90
37998;DHT22;24079;51.824;4.682;2023-08-30T10:11:37;18.90;99.90
37998;DHT22;24079;51.824;4.682;2023-08-30T10:14:04;18.90;99.90
37998;DHT22;24079;51.824;4.682;2023-08-30T10:16:47;18.90;99.90
37998;DHT22;24079;51.824;4.682;2023-08-30T10:19:24;18.80;99.90
37998;DHT22;24079;51.824;4.682;2023-08-30T10:22:06;18.70;99.90
37998;DHT22;24079;51.824;4.682;2023-08-30T10:24:41;18.60;99.90
37998;DHT22;24079;51.824;4.682;2023-08-30T10:27:11;18.30;99.90
37998;DHT22;24079;51.824;4.682;2023-08-30T10:29:38;18.10;99.90
37998;DHT22;24079;51.824;4.682;2023-08-30T10:32:05;18.30;99.90
37998;DHT22;24079;51.824;4.682;2023-08-30T10:34:33;18.60;99.90
37998;DHT22;24079;51.824;4.682;2023-08-30T10:37:06;18.90;99.90
37998;DHT22;24079;51.824;4.682;2023-08-30T10:39:36;18.90;99.90
37998;DHT22;24079;51.824;4.682;2023-08-30T10:42:10;18.80;99.90
37998;DHT22;24079;51.824;4.682;2023-08-30T10:44:56;18.80;99.90
37998;DHT22;24079;51.824;4.682;2023-08-30T10:47:27;18.80;99.90
37998;DHT22;24079;51.824;4.682;2023-08-30T10:49:55;18.80;99.90
37998;DHT22;24079;51.824;4.682;2023-08-30T10:52:22;19.00;99.90
37998;DHT22;24079;51.824;4.682;2023-08-30T10:54:49;19.10;99.90
37998;DHT22;24079;51.824;4.682;2023-08-30T10:57:21;19.20;99.90
37998;DHT22;24079;51.824;4.682;2023-08-30T11:02:37;19.00;99.90
37998;DHT22;24079;51.824;4.682;2023-08-30T11:05:06;19.10;99.90
37998;DHT22;24079;51.824;4.682;2023-08-30T11:07:33;19.10;99.90
37998;DHT22;24079;51.824;4.682;2023-08-30T11:09:59;19.00;99.90
37998;DHT22;24079;51.824;4.682;2023-08-30T11:12:25;19.00;99.90
37998;DHT22;24079;51.824;4.682;2023-08-30T11:14:54;19.00;99.90
37998;DHT22;24079;51.824;4.682;2023-08-30T11:17:20;18.80;99.90
37998;DHT22;24079;51.824;4.682;2023-08-30T11:19:49;18.60;99.90
37998;DHT22;24079;51.824;4.682;2023-08-30T11:22:15;18.60;99.90
37998;DHT22;24079;51.824;4.682;2023-08-30T11:24:47;18.80;99.90
37998;DHT22;24079;51.824;4.682;2023-08-30T11:27:13;19.20;99.90
37998;DHT22;24079;51.824;4.682;2023-08-30T11:29:41;19.70;99.90
37998;DHT22;24079;51.824;4.682;2023-08-30T11:32:08;20.00;99.90
37998;DHT22;24079;51.824;4.682;2023-08-30T11:34:34;20.00;99.90
37998;DHT22;24079;51.824;4.682;2023-08-30T11:37:00;19.80;99.90
37998;DHT22;24079;51.824;4.682;2023-08-30T11:39:29;19.70;99.90
37998;DHT22;24079;51.824;4.682;2023-08-30T11:41:56;19.70;99.90
37998;DHT22;24079;51.824;4.682;2023-08-30T11:44:28;19.90;99.90
37998;DHT22;24079;51.824;4.682;2023-08-30T11:46:58;20.00;99.90
37998;DHT22;24079;51.824;4.682;2023-08-30T11:49:26;20.50;99.90
37998;DHT22;24079;51.824;4.682;2023-08-30T11:51:53;20.80;99.90
37998;DHT22;24079;51.824;4.682;2023-08-30T11:54:21;20.70;99.90
37998;DHT22;24079;51.824;4.682;2023-08-30T11:56:47;20.50;99.90
37998;DHT22;24079;51.824;4.682;2023-08-30T11:59:21;20.20;99.90
37998;DHT22;24079;51.824;4.682;2023-08-30T12:01:54;20.40;99.90
37998;DHT22;24079;51.824;4.682;2023-08-30T12:04:20;20.70;99.90
37998;DHT22;24079;51.824;4.682;2023-08-30T12:06:52;21.20;99.90
37998;DHT22;24079;51.824;4.682;2023-08-30T12:09:21;21.40;99.90
37998;DHT22;24079;51.824;4.682;2023-08-30T12:11:48;21.50;99.90
37998;DHT22;24079;51.824;4.682;2023-08-30T12:14:15;21.40;99.90
37998;DHT22;24079;51.824;4.682;2023-08-30T12:16:41;21.10;99.90
37998;DHT22;24079;51.824;4.682;2023-08-30T12:19:08;20.70;99.90
37998;DHT22;24079;51.824;4.682;2023-08-30T12:21:40;20.10;99.90
37998;DHT22;24079;51.824;4.682;2023-08-30T12:24:07;20.00;99.90
37998;DHT22;24079;51.824;4.682;2023-08-30T12:26:33;20.20;99.90
37998;DHT22;24079;51.824;4.682;2023-08-30T12:28:59;20.30;99.90
37998;DHT22;24079;51.824;4.682;2023-08-30T12:31:26;20.50;99.90
37998;DHT22;24079;51.824;4.682;2023-08-30T12:33:54;20.70;99.90
37998;DHT22;24079;51.824;4.682;2023-08-30T12:36:20;20.80;99.90
37998;DHT22;24079;51.824;4.682;2023-08-30T12:38:46;21.00;99.90
37998;DHT22;24079;51.824;4.682;2023-08-30T12:41:12;21.20;99.90
37998;DHT22;24079;51.824;4.682;2023-08-30T12:43:38;21.50;99.90
37998;DHT22;24079;51.824;4.682;2023-08-30T12:46:04;21.30;99.90
37998;DHT22;24079;51.824;4.682;2023-08-30T12:48:30;21.10;99.90
37998;DHT22;24079;51.824;4.682;2023-08-30T12:50:55;20.70;99.90
37998;DHT22;24079;51.824;4.682;2023-08-30T12:53:22;20.90;99.90
37998;DHT22;24079;51.824;4.682;2023-08-30T12:55:47;20.80;99.90
37998;DHT22;24079;51.824;4.682;2023-08-30T12:58:13;20.80;99.90
37998;DHT22;24079;51.824;4.682;2023-08-30T13:00:39;20.90;99.90
37998;DHT22;24079;51.824;4.682;2023-08-30T13:03:05;20.80;99.90
37998;DHT22;24079;51.824;4.682;2023-08-30T13:05:31;20.70;99.90
37998;DHT22;24079;51.824;4.682;2023-08-30T13:07:58;20.30;99.90
37998;DHT22;24079;51.824;4.682;2023-08-30T13:10:24;19.90;99.90
37998;DHT22;24079;51.824;4.682;2023-08-30T13:12:50;19.70;99.90
37998;DHT22;24079;51.824;4.682;2023-08-30T13:15:16;19.60;99.90
37998;DHT22;24079;51.824;4.682;2023-08-30T13:17:41;19.70;99.90
37998;DHT22;24079;51.824;4.682;2023-08-30T13:20:08;20.10;99.90
37998;DHT22;24079;51.824;4.682;2023-08-30T13:22:34;20.40;99.90
37998;DHT22;24079;51.824;4.682;2023-08-30T13:25:00;20.80;99.90
37998;DHT22;24079;51.824;4.682;2023-08-30T13:27:26;21.00;99.90
37998;DHT22;24079;51.824;4.682;2023-08-30T13:29:53;20.80;99.90
37998;DHT22;24079;51.824;4.682;2023-08-30T13:32:19;20.50;99.90
37998;DHT22;24079;51.824;4.682;2023-08-30T13:34:45;20.20;99.90
37998;DHT22;24079;51.824;4.682;2023-08-30T13:37:12;20.00;99.90
37998;DHT22;24079;51.824;4.682;2023-08-30T13:39:41;19.90;99.90
37998;DHT22;24079;51.824;4.682;2023-08-30T13:42:08;19.60;99.90
37998;DHT22;24079;51.824;4.682;2023-08-30T13:44:34;19.30;99.90
37998;DHT22;24079;51.824;4.682;2023-08-30T13:47:06;19.30;99.90
37998;DHT22;24079;51.824;4.682;2023-08-30T13:49:32;19.10;99.90
37998;DHT22;24079;51.824;4.682;2023-08-30T13:51:59;19.00;99.90
37998;DHT22;24079;51.824;4.682;2023-08-30T13:54:25;18.80;99.90
37998;DHT22;24079;51.824;4.682;2023-08-30T13:56:51;18.70;99.90
37998;DHT22;24079;51.824;4.682;2023-08-30T13:59:18;18.90;99.90
37998;DHT22;24079;51.824;4.682;2023-08-30T14:01:43;19.30;99.90
37998;DHT22;24079;51.824;4.682;2023-08-30T14:04:09;19.60;99.90
37998;DHT22;24079;51.824;4.682;2023-08-30T14:06:35;19.60;99.90
37998;DHT22;24079;51.824;4.682;2023-08-30T14:09:02;19.80;99.90
37998;DHT22;24079;51.824;4.682;2023-08-30T14:11:32;19.90;99.90
37998;DHT22;24079;51.824;4.682;2023-08-30T14:13:57;19.60;99.90
37998;DHT22;24079;51.824;4.682;2023-08-30T14:16:23;19.50;99.90
37998;DHT22;24079;51.824;4.682;2023-08-30T14:18:49;19.70;99.90
37998;DHT22;24079;51.824;4.682;2023-08-30T14:21:15;19.90;99.90
37998;DHT22;24079;51.824;4.682;2023-08-30T14:23:40;20.00;99.90
37998;DHT22;24079;51.824;4.682;2023-08-30T14:26:06;19.70;99.90
37998;DHT22;24079;51.824;4.682;2023-08-30T14:28:36;19.40;99.90
37998;DHT22;24079;51.824;4.682;2023-08-30T14:31:02;19.50;99.90
37998;DHT22;24079;51.824;4.682;2023-08-30T14:33:30;19.60;99.90
37998;DHT22;24079;51.824;4.682;2023-08-30T14:35:55;19.50;99.90
37998;DHT22;24079;51.824;4.682;2023-08-30T14:38:22;19.40;99.90
37998;DHT22;24079;51.824;4.682;2023-08-30T14:41:01;19.30;99.90
37998;DHT22;24079;51.824;4.682;2023-08-30T14:43:27;19.00;99.90
37998;DHT22;24079;51.824;4.682;2023-08-30T14:46:06;19.00;99.90
37998;DHT22;24079;51.824;4.682;2023-08-30T14:48:32;18.90;99.90
37998;DHT22;24079;51.824;4.682;2023-08-30T14:51:04;18.90;99.90
37998;DHT22;24079;51.824;4.682;2023-08-30T14:53:30;18.80;99.90
37998;DHT22;24079;51.824;4.682;2023-08-30T14:55:55;18.80;99.90
37998;DHT22;24079;51.824;4.682;2023-08-30T14:58:21;18.60;99.90
37998;DHT22;24079;51.824;4.682;2023-08-30T15:00:48;18.50;99.90
37998;DHT22;24079;51.824;4.682;2023-08-30T15:03:14;18.50;99.90
37998;DHT22;24079;51.824;4.682;2023-08-30T15:05:41;18.30;99.90
37998;DHT22;24079;51.824;4.682;2023-08-30T15:08:07;18.40;99.90
37998;DHT22;24079;51.824;4.682;2023-08-30T15:10:33;18.40;99.90
37998;DHT22;24079;51.824;4.682;2023-08-30T15:12:58;18.50;99.90
37998;DHT22;24079;51.824;4.682;2023-08-30T15:15:24;18.60;99.90
37998;DHT22;24079;51.824;4.682;2023-08-30T15:17:50;18.60;99.90
37998;DHT22;24079;51.824;4.682;2023-08-30T15:20:15;18.60;99.90
37998;DHT22;24079;51.824;4.682;2023-08-30T15:22:41;18.50;99.90
37998;DHT22;24079;51.824;4.682;2023-08-30T15:25:07;18.50;99.90
37998;DHT22;24079;51.824;4.682;2023-08-30T15:27:34;18.30;99.90
37998;DHT22;24079;51.824;4.682;2023-08-30T15:30:01;18.40;99.90
37998;DHT22;24079;51.824;4.682;2023-08-30T15:32:27;18.30;99.90
37998;DHT22;24079;51.824;4.682;2023-08-30T15:34:53;18.30;99.90
37998;DHT22;24079;51.824;4.682;2023-08-30T15:37:19;18.30;99.90
37998;DHT22;24079;51.824;4.682;2023-08-30T15:39:45;18.20;99.90
37998;DHT22;24079;51.824;4.682;2023-08-30T15:42:11;18.20;99.90
37998;DHT22;24079;51.824;4.682;2023-08-30T15:44:37;18.20;99.90
37998;DHT22;24079;51.824;4.682;2023-08-30T15:47:04;18.10;99.90
37998;DHT22;24079;51.824;4.682;2023-08-30T15:49:30;18.20;99.90